Time;durP1;ratioP1;P1;durP2;ratioP2;P2;SDS_P1;SDS_P2;PMS_P1;PMS_P2;Temp;Humidity;BMP_temperature;BMP_pressure;BME280_temperature;BME280_humidity;BME280_pressure;Samples;Min_cycle;Max_cycle;Signal;HPM_P1;HPM_P2
2021/09/18 00:01:34;;;;;;;16.60;5.10;;;;;;;15.01;62.81;99042.09;27215;1216;3051670;-66
2021/09/18 00:04:05;;;;;;;16.90;5.00;;;;;;;14.98;63.25;99042.08;27212;1216;3026314;-64
2021/09/18 00:06:34;;;;;;;15.20;5.00;;;;;;;14.98;63.15;99039.95;27273;1215;3068776;-65
2021/09/18 00:09:16;;;;;;;20.80;5.40;;;;;;;14.97;63.17;99039.52;27208;1216;3051336;-67
2021/09/18 00:12:05;;;;;;;14.80;5.80;;;;;;;14.99;63.29;99040.94;27205;1216;3054845;-69
2021/09/18 00:14:37;;;;;;;16.90;5.70;;;;;;;15.00;62.98;99042.73;27215;1215;3026800;-68
2021/09/18 00:17:08;;;;;;;16.30;5.80;;;;;;;14.98;63.14;99041.29;27206;1216;3056027;-65
2021/09/18 00:19:39;;;;;;;16.90;5.50;;;;;;;14.95;63.37;99036.96;27278;1216;3026012;-65
2021/09/18 00:22:10;;;;;;;20.30;6.00;;;;;;;14.94;63.41;99032.84;27263;1216;3026988;-71
2021/09/18 00:24:59;;;;;;;15.20;5.40;;;;;;;14.94;63.51;99028.83;27249;1215;3053998;-67
2021/09/18 00:27:28;;;;;;;18.50;6.20;;;;;;;14.91;63.89;99030.27;27188;1215;3028788;-68
2021/09/18 00:29:57;;;;;;;12.30;4.80;;;;;;;14.90;63.68;99027.86;27221;1215;3051319;-68
2021/09/18 00:32:26;;;;;;;14.90;5.20;;;;;;;14.89;63.90;99026.55;27212;1215;3027316;-67
2021/09/18 00:34:59;;;;;;;18.00;5.30;;;;;;;14.88;63.83;99027.70;27216;1216;3048975;-66
2021/09/18 00:37:28;;;;;;;18.60;5.70;;;;;;;14.92;64.01;99024.92;27233;1215;3027986;-62
2021/09/18 00:39:57;;;;;;;16.80;5.10;;;;;;;14.87;64.01;99024.11;27236;1215;3058415;-64
2021/09/18 00:42:46;;;;;;;14.20;5.90;;;;;;;14.84;64.23;99025.48;27169;1216;3049900;-69
2021/09/18 00:45:15;;;;;;;19.20;5.40;;;;;;;14.87;64.22;99023.79;27293;1215;3026766;-64
2021/09/18 00:48:04;;;;;;;15.60;5.20;;;;;;;14.86;64.11;99020.68;27227;1216;3058802;-67
2021/09/18 00:50:54;;;;;;;13.90;4.60;;;;;;;14.88;64.43;99013.83;27209;1215;3049769;-68
2021/09/18 00:53:23;;;;;;;16.50;4.60;;;;;;;15.40;62.80;99010.86;27295;1216;3026165;-68
2021/09/18 00:55:52;;;;;;;16.10;4.50;;;;;;;15.78;61.53;99007.04;27238;1215;3026430;-64
2021/09/18 00:58:41;;;;;;;14.60;4.80;;;;;;;15.80;61.57;99003.12;27194;1216;3068644;-65
2021/09/18 01:01:12;;;;;;;15.90;5.10;;;;;;;15.70;62.14;99001.35;27241;1215;3026036;-67
2021/09/18 01:03:44;;;;;;;15.90;5.20;;;;;;;15.60;62.51;99006.17;27250;1215;3026569;-66
2021/09/18 01:06:13;;;;;;;19.10;5.40;;;;;;;15.45;63.02;99002.66;27220;1209;3026094;-64
2021/09/18 01:09:02;;;;;;;14.60;4.60;;;;;;;15.33;63.65;99003.55;27219;1216;3058925;-64
2021/09/18 01:11:51;;;;;;;13.50;4.70;;;;;;;15.19;64.34;99005.54;27241;1215;3049696;-64
2021/09/18 01:14:19;;;;;;;18.40;4.80;;;;;;;15.16;64.46;99002.38;27230;1214;3025925;-64
2021/09/18 01:16:50;;;;;;;15.80;5.90;;;;;;;15.12;64.63;99002.92;27230;1215;3058695;-66
2021/09/18 01:19:21;;;;;;;17.10;4.70;;;;;;;15.05;64.87;98997.52;27234;1216;3026567;-68
2021/09/18 01:21:50;;;;;;;12.70;4.70;;;;;;;15.02;65.16;98994.92;27234;1215;3026326;-64
2021/09/18 01:24:39;;;;;;;16.10;5.00;;;;;;;14.93;65.83;98998.20;27214;1216;3056290;-68
2021/09/18 01:27:09;;;;;;;12.70;4.70;;;;;;;14.91;66.13;98994.89;27236;1216;3028423;-68
2021/09/18 01:29:38;;;;;;;15.00;4.60;;;;;;;15.38;64.98;98999.58;27248;1216;3026357;-68
2021/09/18 01:32:07;;;;;;;11.80;4.10;;;;;;;15.80;63.40;99000.48;27247;1216;3055800;-68
2021/09/18 01:34:38;;;;;;;13.10;4.90;;;;;;;15.74;63.41;98997.86;27204;1216;3027052;-63
2021/09/18 01:37:07;;;;;;;17.70;5.20;;;;;;;15.56;64.12;98996.96;27231;1215;3026214;-62
2021/09/18 01:39:36;;;;;;;14.20;4.90;;;;;;;15.47;64.30;98992.45;27258;1215;3026155;-65
2021/09/18 01:42:05;;;;;;;21.90;5.50;;;;;;;15.25;64.92;98986.42;27211;1215;3048620;-66
2021/09/18 01:44:43;;;;;;;17.20;5.70;;;;;;;15.14;65.50;98992.52;27257;1216;3055390;-70
2021/09/18 01:47:56;;;;;;;16.70;5.80;;;;;;;15.03;66.04;98990.48;27223;1215;3054013;-64
2021/09/18 01:50:40;;;;;;;14.60;5.70;;;;;;;14.99;66.12;98995.11;27213;1216;3071531;-65
2021/09/18 01:53:09;;;;;;;16.90;5.80;;;;;;;14.92;66.55;98993.52;27228;1216;3047571;-68
2021/09/18 01:55:38;;;;;;;17.90;6.00;;;;;;;14.87;66.70;98991.30;27219;1209;3026586;-66
2021/09/18 01:58:07;;;;;;;9.10;4.80;;;;;;;14.82;67.31;98993.67;27219;1216;3070395;-67
2021/09/18 02:00:38;;;;;;;9.00;4.30;;;;;;;15.26;66.07;98991.66;27212;1216;3030182;-66
2021/09/18 02:03:07;;;;;;;13.60;4.80;;;;;;;15.68;64.50;98984.04;27251;1215;3051104;-62
2021/09/18 02:05:36;;;;;;;14.40;4.90;;;;;;;15.79;64.20;98987.91;27213;1215;3026202;-63
2021/09/18 02:08:06;;;;;;;15.90;5.10;;;;;;;15.66;64.50;98986.34;27229;1216;3026793;-66
2021/09/18 02:10:35;;;;;;;16.50;4.70;;;;;;;15.54;65.00;98983.95;27241;1215;3025846;-65
2021/09/18 02:13:24;;;;;;;15.30;5.50;;;;;;;15.42;65.41;98987.21;27205;1216;3071172;-66
2021/09/18 02:15:53;;;;;;;12.30;4.60;;;;;;;15.29;66.09;98984.38;27212;1215;3026278;-70
2021/09/18 02:18:42;;;;;;;16.20;5.20;;;;;;;15.15;66.72;98986.46;27226;1216;3052444;-66
2021/09/18 02:21:11;;;;;;;13.70;5.30;;;;;;;15.09;66.88;98985.04;27227;1216;3026151;-63
2021/09/18 02:24:47;;;;;;;11.50;5.20;;;;;;;15.08;67.01;98981.19;34327;1216;3025979;-66
2021/09/18 02:27:16;;;;;;;15.10;6.50;;;;;;;15.30;65.69;98975.77;27201;1217;3026389;-66
2021/09/18 02:29:45;;;;;;;13.40;4.60;;;;;;;15.42;65.80;98974.86;27203;1218;3026257;-66
2021/09/18 02:32:16;;;;;;;14.50;4.80;;;;;;;15.96;64.14;98976.35;27248;1218;3047809;-66
2021/09/18 02:35:06;;;;;;;15.60;4.90;;;;;;;16.35;62.67;98969.94;27222;1218;3054985;-70
2021/09/18 02:37:38;;;;;;;14.50;4.60;;;;;;;16.35;62.60;98965.80;27232;1218;3026384;-65
2021/09/18 02:40:09;;;;;;;14.00;4.30;;;;;;;16.15;63.02;98966.47;27239;1218;3026623;-64
2021/09/18 02:42:48;;;;;;;17.30;5.30;;;;;;;16.00;63.47;98964.30;27297;1217;3050427;-65
2021/09/18 02:45:17;;;;;;;13.70;4.90;;;;;;;15.90;63.74;98963.44;27365;1217;3027792;-62
2021/09/18 02:47:47;;;;;;;19.20;5.40;;;;;;;15.80;64.21;98961.45;27390;1218;3026091;-65
2021/09/18 02:50:17;;;;;;;14.00;5.20;;;;;;;15.75;64.23;98961.19;27191;1209;3026107;-68
2021/09/18 02:53:06;;;;;;;15.00;4.90;;;;;;;15.65;64.39;98962.96;27187;1217;3053102;-68
2021/09/18 02:55:34;;;;;;;15.00;5.00;;;;;;;15.64;63.90;98958.83;27214;1209;3026488;-65
2021/09/18 02:58:03;;;;;;;17.10;6.40;;;;;;;15.55;64.53;98965.06;27213;1217;3048087;-65
2021/09/18 03:00:35;;;;;;;20.10;7.20;;;;;;;15.37;65.48;98964.79;27283;1217;3026263;-68
2021/09/18 03:03:05;;;;;;;16.70;6.80;;;;;;;15.34;65.76;98967.38;27276;1218;3027127;-68
2021/09/18 03:05:38;;;;;;;21.90;8.80;;;;;;;15.79;65.60;98966.73;27236;1217;3028345;-66
2021/09/18 03:08:07;;;;;;;22.80;9.80;;;;;;;16.12;64.78;98972.20;27257;1218;3025832;-66
2021/09/18 03:10:36;;;;;;;29.50;10.60;;;;;;;16.06;65.27;98971.03;27208;1218;3025899;-67
2021/09/18 03:13:06;;;;;;;26.90;11.80;;;;;;;15.71;66.80;98965.84;27225;1218;3070014;-63
2021/09/18 03:15:35;;;;;;;28.10;10.50;;;;;;;15.53;67.56;98962.11;27233;1218;3028159;-70
2021/09/18 03:18:24;;;;;;;28.50;11.10;;;;;;;15.42;68.36;98965.54;27239;1218;3053168;-65
2021/09/18 03:20:53;;;;;;;30.20;11.10;;;;;;;15.31;69.26;98965.50;27196;1217;3026488;-65
2021/09/18 03:23:22;;;;;;;32.20;10.20;;;;;;;15.18;70.40;98968.75;27239;1216;3051727;-61
2021/09/18 03:25:52;;;;;;;27.50;9.30;;;;;;;15.73;68.96;98965.84;27292;1216;3025810;-64
2021/09/18 03:28:23;;;;;;;29.10;10.50;;;;;;;16.10;67.77;98963.94;27341;1218;3026912;-66
2021/09/18 03:30:52;;;;;;;34.50;11.50;;;;;;;16.18;67.33;98965.77;27369;1216;3029274;-66
2021/09/18 03:33:40;;;;;;;31.50;11.70;;;;;;;15.99;68.37;98973.01;27314;1217;3051887;-65
2021/09/18 03:36:10;;;;;;;29.10;10.90;;;;;;;15.76;68.90;98970.48;27300;1218;3026265;-69
2021/09/18 03:38:39;;;;;;;28.80;11.50;;;;;;;15.66;69.22;98971.52;27244;1218;3049055;-63
2021/09/18 03:41:28;;;;;;;36.50;11.50;;;;;;;15.49;69.76;98974.28;27230;1218;3051970;-67
2021/09/18 03:43:57;;;;;;;23.70;9.00;;;;;;;15.39;70.25;98974.42;27270;1217;3026465;-64
2021/09/18 03:46:25;;;;;;;18.80;9.30;;;;;;;15.87;69.07;98967.74;27225;1217;3050188;-63
2021/09/18 03:49:06;;;;;;;24.60;10.30;;;;;;;16.46;66.92;98968.87;27207;1217;3053805;-68
2021/09/18 03:51:39;;;;;;;26.80;10.60;;;;;;;16.49;66.68;98961.73;27207;1217;3026265;-66
2021/09/18 03:54:08;;;;;;;26.60;10.40;;;;;;;16.46;66.69;98958.14;27202;1219;3026529;-65
2021/09/18 03:56:47;;;;;;;30.10;10.50;;;;;;;16.31;67.11;98960.73;27234;1217;3053209;-67
2021/09/18 03:59:18;;;;;;;24.60;10.30;;;;;;;16.07;68.16;98959.05;27256;1218;3026267;-67
2021/09/18 04:01:47;;;;;;;21.80;10.10;;;;;;;16.00;68.14;98962.88;27209;1217;3025845;-65
2021/09/18 04:04:18;;;;;;;28.00;9.90;;;;;;;15.94;68.09;98965.55;27205;1217;3026085;-70
2021/09/18 04:06:48;;;;;;;23.10;8.40;;;;;;;15.85;68.66;98967.38;27202;1218;3051544;-62
2021/09/18 04:09:18;;;;;;;19.60;8.20;;;;;;;16.43;67.09;98970.23;27259;1218;3026907;-68
2021/09/18 04:11:46;;;;;;;23.20;8.00;;;;;;;16.91;64.99;98967.14;27208;1212;3026259;-66
2021/09/18 04:14:16;;;;;;;22.50;8.80;;;;;;;17.06;64.36;98967.23;27208;1217;3051925;-66
2021/09/18 04:16:47;;;;;;;20.30;8.40;;;;;;;16.71;65.75;98969.37;27238;1218;3026239;-68
2021/09/18 04:19:17;;;;;;;29.80;9.00;;;;;;;16.53;66.65;98975.34;27221;1217;3025901;-70
2021/09/18 04:21:47;;;;;;;28.20;12.80;;;;;;;16.39;67.27;98976.80;27219;1218;3027920;-66
2021/09/18 04:24:18;;;;;;;27.40;12.90;;;;;;;16.35;67.21;98976.98;27231;1218;3026235;-71
2021/09/18 04:26:47;;;;;;;23.60;11.00;;;;;;;16.27;67.47;98977.34;27241;1218;3026246;-65
2021/09/18 04:29:16;;;;;;;24.30;10.10;;;;;;;16.15;68.18;98974.73;27218;1218;3054573;-70
2021/09/18 04:31:45;;;;;;;17.70;7.80;;;;;;;16.15;68.72;98979.20;27240;1217;3026684;-66
2021/09/18 04:34:14;;;;;;;25.80;9.10;;;;;;;16.67;67.51;98975.59;27179;1217;3052540;-67
2021/09/18 04:36:44;;;;;;;30.50;10.60;;;;;;;17.19;65.85;98970.01;27185;1218;3026784;-62
2021/09/18 04:39:14;;;;;;;25.40;10.80;;;;;;;16.94;66.32;98973.41;27216;1217;3029207;-67
2021/09/18 04:41:43;;;;;;;30.10;10.30;;;;;;;16.74;66.86;98971.20;27244;1217;3028785;-65
2021/09/18 04:44:13;;;;;;;24.40;9.90;;;;;;;16.68;67.22;98973.42;27212;1218;3054572;-66
2021/09/18 04:46:48;;;;;;;;;;;;;;;16.69;67.11;98972.78;27279;1217;3052836;-68
2021/09/18 04:49:17;;;;;;;26.70;9.70;;;;;;;16.52;67.91;98975.04;27199;1218;3026980;-64
2021/09/18 04:51:47;;;;;;;23.70;10.00;;;;;;;16.57;67.49;98974.61;27255;1217;3027006;-62
2021/09/18 04:54:15;;;;;;;19.60;9.30;;;;;;;16.44;67.78;98976.12;27251;1217;3026172;-67
2021/09/18 04:57:02;;;;;;;19.70;7.40;;;;;;;16.36;68.17;98978.17;27184;1218;3069339;-70
2021/09/18 04:59:31;;;;;;;16.50;7.40;;;;;;;16.98;66.24;98982.46;27242;1217;3026129;-64
2021/09/18 05:02:00;;;;;;;18.80;7.10;;;;;;;17.43;64.59;98975.02;27206;1218;3051964;-66
2021/09/18 05:04:29;;;;;;;24.20;7.40;;;;;;;17.28;64.37;98976.42;27231;1218;3028482;-64
2021/09/18 05:06:58;;;;;;;16.10;6.90;;;;;;;17.22;65.05;98975.08;27188;1218;3054776;-71
2021/09/18 05:09:27;;;;;;;19.70;7.40;;;;;;;17.12;65.19;98979.73;27204;1217;3026294;-66
2021/09/18 05:11:56;;;;;;;18.50;6.90;;;;;;;17.04;65.42;98979.08;27171;1217;3048603;-67
2021/09/18 05:14:25;;;;;;;18.50;7.90;;;;;;;17.06;65.28;98978.17;27212;1217;3025968;-67
2021/09/18 05:16:54;;;;;;;20.50;6.70;;;;;;;16.93;65.36;98982.62;27232;1217;3026237;-64
2021/09/18 05:19:24;;;;;;;17.30;6.50;;;;;;;16.81;65.63;98980.31;27209;1217;3049813;-66
2021/09/18 05:21:54;;;;;;;16.40;6.60;;;;;;;16.63;66.22;98979.86;27213;1217;3026523;-63
2021/09/18 05:24:25;;;;;;;14.30;5.60;;;;;;;16.64;66.52;98980.46;27238;1218;3025996;-63
2021/09/18 05:27:10;;;;;;;13.80;5.50;;;;;;;17.18;65.08;98978.61;27189;1217;3070591;-66
2021/09/18 05:29:43;;;;;;;14.20;5.70;;;;;;;17.67;63.41;98974.05;27244;1217;3025949;-66
2021/09/18 05:32:12;;;;;;;19.60;5.70;;;;;;;17.84;62.85;98972.98;27192;1217;3050090;-66
2021/09/18 05:34:41;;;;;;;13.10;6.00;;;;;;;17.76;62.33;98972.54;27194;1218;3026588;-66
2021/09/18 05:37:11;;;;;;;16.70;5.90;;;;;;;17.59;63.32;98967.79;27248;1218;3026041;-66
2021/09/18 05:39:41;;;;;;;16.10;7.30;;;;;;;17.65;63.21;98965.79;27275;1217;3025951;-67
2021/09/18 05:42:10;;;;;;;14.90;7.40;;;;;;;17.66;62.94;98967.23;27193;1217;3067258;-68
2021/09/18 05:44:51;;;;;;;17.70;6.10;;;;;;;17.58;63.43;98969.61;27246;1217;3048779;-66
2021/09/18 05:47:20;;;;;;;18.30;7.40;;;;;;;17.52;63.43;98972.17;27199;1218;3026873;-66
2021/09/18 05:49:49;;;;;;;15.20;6.60;;;;;;;17.44;63.49;98971.58;27189;1218;3067588;-64
2021/09/18 05:52:18;;;;;;;13.00;5.80;;;;;;;17.54;63.28;98972.13;27179;1217;3026024;-66
2021/09/18 05:54:49;;;;;;;16.30;6.40;;;;;;;17.63;63.14;98966.13;27224;1218;3028185;-67
2021/09/18 05:57:18;;;;;;;16.20;5.10;;;;;;;17.79;62.59;98965.63;27201;1218;3027195;-69
2021/09/18 05:59:47;;;;;;;13.20;5.00;;;;;;;17.90;62.44;98964.08;27233;1217;3048238;-64
2021/09/18 06:02:16;;;;;;;20.70;4.80;;;;;;;18.07;61.26;98965.77;27178;1217;3026114;-65
2021/09/18 06:05:06;;;;;;;14.70;5.60;;;;;;;18.07;61.35;98968.73;27231;1218;3068727;-70
2021/09/18 06:07:35;;;;;;;11.80;5.10;;;;;;;18.10;61.21;98964.80;27227;1218;3026510;-62
2021/09/18 06:10:19;;;;;;;16.10;5.10;;;;;;;18.13;61.16;98966.23;27234;1217;3054639;-67
2021/09/18 06:12:50;;;;;;;12.70;5.20;;;;;;;18.15;60.87;98963.14;27232;1218;3026520;-64
2021/09/18 06:15:39;;;;;;;18.40;5.40;;;;;;;18.20;60.37;98962.88;27237;1218;3058903;-63
2021/09/18 06:18:07;;;;;;;11.80;5.50;;;;;;;18.22;60.61;98963.69;27216;1217;3028069;-63
2021/09/18 06:20:36;;;;;;;17.70;5.50;;;;;;;18.31;59.72;98962.10;27187;1218;3052496;-65
2021/09/18 06:23:06;;;;;;;12.10;4.80;;;;;;;18.40;59.57;98962.66;27214;1219;3026095;-65
2021/09/18 06:25:37;;;;;;;17.90;4.90;;;;;;;18.50;57.80;98960.20;27224;1217;3028459;-61
2021/09/18 06:28:06;;;;;;;9.20;4.40;;;;;;;18.47;58.77;98953.40;27212;1218;3026221;-63
2021/09/18 06:30:42;;;;;;;15.80;5.40;;;;;;;18.55;57.90;98952.95;27234;1218;3049521;-66
2021/09/18 06:33:11;;;;;;;21.20;6.20;;;;;;;18.61;58.43;98957.11;27212;1218;3027051;-63
2021/09/18 06:35:40;;;;;;;18.40;5.90;;;;;;;18.71;58.17;98955.93;27220;1218;3026069;-64
2021/09/18 06:38:14;;;;;;;10.60;4.90;;;;;;;18.76;58.10;98951.84;27235;1217;3053015;-66
2021/09/18 06:40:44;;;;;;;15.00;4.70;;;;;;;18.77;56.27;98951.05;27203;1219;3028467;-67
2021/09/18 06:43:13;;;;;;;9.70;4.60;;;;;;;18.93;55.45;98951.72;27221;1218;3027233;-64
2021/09/18 06:45:42;;;;;;;12.80;4.80;;;;;;;19.04;54.90;98955.09;27209;1218;3050857;-64
2021/09/18 06:48:11;;;;;;;15.30;4.80;;;;;;;19.05;54.13;98960.10;27207;1219;3026436;-70
2021/09/18 06:50:40;;;;;;;17.60;5.60;;;;;;;19.15;53.69;98958.20;27268;1218;3054371;-68
2021/09/18 06:53:10;;;;;;;13.30;4.20;;;;;;;19.21;53.18;98956.11;27249;1217;3025932;-64
2021/09/18 06:55:38;;;;;;;15.30;4.90;;;;;;;19.23;52.85;98955.92;27223;1218;3026897;-68
2021/09/18 06:58:07;;;;;;;15.80;5.40;;;;;;;19.33;52.51;98952.24;27227;1218;3055005;-67
2021/09/18 07:00:36;;;;;;;13.10;5.00;;;;;;;19.43;52.36;98947.76;27226;1217;3026070;-66
2021/09/18 07:03:05;;;;;;;14.20;4.40;;;;;;;19.52;51.71;98945.95;27211;1217;3052609;-64
2021/09/18 07:05:35;;;;;;;14.90;4.40;;;;;;;19.63;51.63;98943.60;27228;1218;3026499;-62
2021/09/18 07:08:04;;;;;;;15.60;4.40;;;;;;;19.79;51.33;98938.80;27192;1209;3026459;-67
2021/09/18 07:10:33;;;;;;;15.30;4.50;;;;;;;19.88;51.68;98940.59;27205;1218;3048386;-65
2021/09/18 07:13:02;;;;;;;14.60;4.40;;;;;;;19.96;50.91;98939.10;27219;1216;3026308;-66
2021/09/18 07:15:31;;;;;;;8.70;4.40;;;;;;;19.98;50.00;98939.30;27202;1219;3057592;-65
2021/09/18 07:18:00;;;;;;;23.60;4.40;;;;;;;19.79;48.28;98935.41;27202;1216;3026104;-64
2021/09/18 07:20:29;;;;;;;13.10;3.60;;;;;;;19.76;46.50;98933.76;27215;1217;3051154;-70
2021/09/18 07:23:00;;;;;;;17.20;4.20;;;;;;;19.70;46.59;98931.79;27212;1218;3026242;-68
2021/09/18 07:25:29;;;;;;;11.20;4.10;;;;;;;19.78;47.32;98936.34;27200;1218;3026280;-68
2021/09/18 07:27:58;;;;;;;10.40;3.40;;;;;;;19.87;47.55;98936.52;27223;1216;3027424;-68
2021/09/18 07:30:27;;;;;;;14.00;4.40;;;;;;;19.99;47.59;98933.30;27198;1217;3057527;-63
2021/09/18 07:32:56;;;;;;;11.90;4.40;;;;;;;20.01;47.90;98930.10;27161;1216;3026164;-66
2021/09/18 07:35:25;;;;;;;13.30;4.80;;;;;;;19.96;47.38;98928.46;27198;1216;3028139;-71
2021/09/18 07:37:54;;;;;;;9.90;4.10;;;;;;;19.89;47.73;98928.54;27231;1216;3055156;-67
2021/09/18 07:40:24;;;;;;;15.00;4.50;;;;;;;19.95;47.78;98920.57;27175;1216;3025728;-65
2021/09/18 07:42:53;;;;;;;12.90;5.20;;;;;;;20.02;48.47;98919.73;27242;1218;3026981;-67
2021/09/18 07:45:23;;;;;;;20.20;4.80;;;;;;;20.08;48.03;98922.05;27215;1218;3025874;-67
2021/09/18 07:47:52;;;;;;;19.80;7.30;;;;;;;20.02;48.37;98918.61;27210;1216;3025733;-66
2021/09/18 07:50:21;;;;;;;24.00;8.50;;;;;;;19.98;49.35;98912.45;27227;1216;3054438;-65
2021/09/18 07:52:50;;;;;;;23.70;9.20;;;;;;;20.02;49.99;98919.50;27223;1218;3026111;-67
2021/09/18 07:55:20;;;;;;;27.30;7.00;;;;;;;20.09;50.65;98917.49;27186;1219;3051064;-69
2021/09/18 07:57:49;;;;;;;29.70;9.20;;;;;;;20.14;50.35;98920.13;27216;1216;3026287;-61
2021/09/18 08:00:27;;;;;;;18.80;7.50;;;;;;;20.17;50.91;98915.73;27242;1218;3057319;-66
2021/09/18 08:02:56;;;;;;;12.10;5.50;;;;;;;20.21;51.03;98914.42;27207;1216;3028161;-67
2021/09/18 08:05:25;;;;;;;26.50;4.90;;;;;;;19.97;50.85;98911.02;27192;1216;3050536;-69
2021/09/18 08:07:54;;;;;;;11.20;3.70;;;;;;;20.09;51.06;98913.41;27242;1219;3026317;-67
2021/09/18 08:10:23;;;;;;;26.80;12.10;;;;;;;19.88;50.31;98909.40;27197;1216;3054250;-67
2021/09/18 08:12:53;;;;;;;38.30;18.00;;;;;;;19.86;49.28;98906.35;27218;1217;3026430;-65
2021/09/18 08:15:24;;;;;;;53.10;23.70;;;;;;;19.88;49.13;98905.17;27334;1216;3026084;-67
2021/09/18 08:17:53;;;;;;;30.90;12.00;;;;;;;19.88;49.07;98908.77;27222;1218;3026563;-64
2021/09/18 08:20:22;;;;;;;21.70;9.00;;;;;;;19.86;48.37;98905.90;27225;1216;3051492;-68
2021/09/18 08:22:51;;;;;;;24.80;7.30;;;;;;;19.80;48.37;98909.02;27233;1218;3026387;-68
2021/09/18 08:25:33;;;;;;;18.00;5.70;;;;;;;19.66;49.03;98907.34;27187;1216;3053637;-64
2021/09/18 08:28:03;;;;;;;9.40;4.30;;;;;;;19.60;49.78;98902.84;27160;1216;3026087;-64
2021/09/18 08:30:33;;;;;;;24.20;8.20;;;;;;;19.54;50.67;98913.41;27255;1216;3029212;-68
2021/09/18 08:33:10;;;;;;;47.00;14.90;;;;;;;19.45;52.64;98911.38;27198;1216;3053082;-66
2021/09/18 08:35:40;;;;;;;57.20;21.30;;;;;;;19.53;54.39;98911.88;27195;1216;3026299;-66
2021/09/18 08:38:09;;;;;;;69.40;20.80;;;;;;;19.48;55.25;98906.65;27196;1216;3026408;-68
2021/09/18 08:40:45;;;;;;;57.00;16.60;;;;;;;19.35;56.01;98906.16;27213;1216;3054946;-64
2021/09/18 08:43:15;;;;;;;23.00;6.70;;;;;;;19.35;55.74;98900.16;27273;1216;3028165;-67
2021/09/18 08:45:46;;;;;;;13.90;4.40;;;;;;;19.37;55.82;98896.41;27213;1219;3026285;-66
2021/09/18 08:48:16;;;;;;;19.20;4.60;;;;;;;19.35;56.63;98895.90;27208;1216;3027860;-65
2021/09/18 08:50:49;;;;;;;14.80;3.40;;;;;;;19.30;57.88;98886.65;27271;1216;3026072;-64
2021/09/18 08:53:21;;;;;;;9.70;3.50;;;;;;;19.30;57.35;98888.44;27279;1216;3026554;-64
2021/09/18 08:55:54;;;;;;;13.40;3.80;;;;;;;19.33;57.55;98887.62;27359;1216;3027805;-64
2021/09/18 08:58:24;;;;;;;9.30;2.70;;;;;;;19.36;57.73;98887.03;27227;1216;3026393;-67
2021/09/18 09:00:56;;;;;;;8.10;3.40;;;;;;;19.41;57.51;98884.14;27220;1217;3027656;-63
2021/09/18 09:03:35;;;;;;;13.40;3.30;;;;;;;19.46;57.79;98882.48;27229;1216;3027651;-66
2021/09/18 09:06:12;;;;;;;11.90;3.10;;;;;;;19.51;57.56;98883.02;27224;1216;3055607;-66
2021/09/18 09:08:55;;;;;;;11.40;3.20;;;;;;;19.58;56.74;98882.98;27223;1216;3049433;-67
2021/09/18 09:11:27;;;;;;;11.60;3.00;;;;;;;19.53;57.07;98880.29;27243;1216;3052263;-70
2021/09/18 09:14:08;;;;;;;10.40;2.70;;;;;;;19.57;56.43;98878.05;27210;1216;3027063;-70
2021/09/18 09:17:02;;;;;;;7.40;2.80;;;;;;;19.65;55.04;98872.88;27174;1216;3072275;-67
2021/09/18 09:19:39;;;;;;;11.50;2.80;;;;;;;19.67;54.99;98868.14;27224;1216;3048642;-66
2021/09/18 09:22:47;;;;;;;9.60;2.30;;;;;;;19.65;54.09;98865.70;27194;1216;3054326;-64
2021/09/18 09:25:35;;;;;;;6.90;2.10;;;;;;;19.81;53.67;98866.52;27215;1216;3054638;-66
2021/09/18 09:28:25;;;;;;;10.20;2.80;;;;;;;19.86;53.61;98867.01;27240;1216;3058252;-71
2021/09/18 09:30:54;;;;;;;14.00;2.80;;;;;;;19.90;53.13;98865.89;27215;1216;3049591;-67
2021/09/18 09:33:26;;;;;;;9.00;2.80;;;;;;;19.93;53.27;98866.63;27234;1222;3027517;-66
2021/09/18 09:35:58;;;;;;;12.50;2.60;;;;;;;19.97;52.86;98861.22;27257;1216;3026472;-63
2021/09/18 09:38:33;;;;;;;9.90;4.50;;;;;;;20.01;52.87;98865.63;27223;1216;3028264;-66
2021/09/18 09:41:04;;;;;;;7.00;3.10;;;;;;;20.06;53.10;98864.67;27184;1216;3049444;-62
2021/09/18 09:43:43;;;;;;;10.60;3.70;;;;;;;20.12;53.22;98869.13;27248;1216;3028235;-70
2021/09/18 09:46:15;;;;;;;10.60;3.20;;;;;;;20.16;53.17;98868.86;27223;1216;3052588;-63
2021/09/18 09:50:03;;;;;;;11.60;4.00;;;;;;;20.29;53.84;98867.76;34131;1218;3025710;-66
2021/09/18 09:52:35;;;;;;;9.80;3.70;;;;;;;20.47;52.81;98871.85;27093;1221;3054868;-71
2021/09/18 09:55:09;;;;;;;9.50;2.70;;;;;;;20.50;49.88;98867.30;27108;1221;3028958;-66
2021/09/18 09:57:42;;;;;;;;;;;;;;;20.51;49.68;98869.80;27165;1220;3057490;-71
2021/09/18 10:00:13;;;;;;;6.30;2.70;;;;;;;20.48;50.03;98868.91;27106;1221;3028352;-68
2021/09/18 10:02:43;;;;;;;12.40;2.30;;;;;;;20.54;49.63;98867.94;27166;1221;3026409;-68
2021/09/18 10:05:14;;;;;;;9.00;3.20;;;;;;;20.55;49.22;98865.00;27159;1221;3026084;-65
2021/09/18 10:07:43;;;;;;;19.00;3.10;;;;;;;20.51;48.80;98871.41;27137;1221;3026720;-68
2021/09/18 10:10:12;;;;;;;9.10;2.90;;;;;;;20.56;48.79;98869.63;27173;1221;3026342;-67
2021/09/18 10:12:45;;;;;;;11.30;2.40;;;;;;;20.55;48.33;98865.52;27154;1221;3049456;-65
2021/09/18 10:15:14;;;;;;;16.10;2.60;;;;;;;20.54;47.90;98862.72;27172;1220;3026690;-69
2021/09/18 10:17:46;;;;;;;10.00;2.70;;;;;;;20.65;48.20;98858.64;27184;1221;3055607;-63
2021/09/18 10:23:13;;;;;;;14.00;3.30;;;;;;;20.65;48.29;98858.16;27179;1221;3026058;-66
2021/09/18 10:23:15;;;;;;;8.00;2.30;;;;;;;20.71;48.01;98852.48;27154;1220;3070625;-65
2021/09/18 10:25:51;;;;;;;15.90;3.10;;;;;;;20.68;47.86;98852.14;27219;1219;3026339;-65
2021/09/18 10:28:40;;;;;;;8.10;2.80;;;;;;;20.77;48.21;98845.71;27214;1215;3052334;-64
2021/09/18 10:31:17;;;;;;;13.60;3.20;;;;;;;20.75;47.87;98847.77;27219;1215;3051629;-66
2021/09/18 10:33:49;;;;;;;9.40;3.00;;;;;;;20.84;47.65;98848.02;27220;1215;3056186;-69
2021/09/18 10:36:19;;;;;;;15.30;3.00;;;;;;;20.92;46.94;98848.84;27205;1215;3027754;-64
2021/09/18 10:39:02;;;;;;;17.00;3.40;;;;;;;20.98;46.24;98839.91;27214;1210;3026352;-68
2021/09/18 10:41:51;;;;;;;15.10;3.40;;;;;;;21.08;45.98;98838.67;27214;1215;3052779;-65
2021/09/18 10:44:22;;;;;;;12.00;3.10;;;;;;;21.20;46.24;98835.76;27236;1215;3071111;-64
2021/09/18 10:46:55;;;;;;;13.30;3.30;;;;;;;21.25;46.58;98828.71;27274;1215;3028995;-70
2021/09/18 10:49:31;;;;;;;12.30;3.10;;;;;;;21.33;45.99;98829.13;27260;1215;3053419;-69
2021/09/18 10:52:16;;;;;;;9.70;3.10;;;;;;;21.37;45.96;98825.63;27175;1215;3053170;-69
2021/09/18 10:55:18;;;;;;;;;;;;;;;21.46;46.02;98822.63;27237;1215;3056433;-65
2021/09/18 10:57:49;;;;;;;9.10;2.90;;;;;;;21.48;45.64;98818.34;27166;1221;3051684;-72
2021/09/18 11:00:19;;;;;;;13.20;3.50;;;;;;;21.52;45.62;98820.89;27190;1221;3026546;-66
2021/09/18 11:02:50;;;;;;;13.20;3.90;;;;;;;21.45;45.93;98819.52;27205;1220;3026410;-68
2021/09/18 11:05:25;;;;;;;14.90;4.10;;;;;;;21.36;46.19;98815.63;27191;1220;3026436;-65
2021/09/18 11:07:59;;;;;;;11.90;3.90;;;;;;;21.32;46.57;98820.27;27184;1220;3049432;-68
2021/09/18 11:10:33;;;;;;;24.10;4.40;;;;;;;21.25;46.23;98815.19;27185;1220;3050654;-67
2021/09/18 11:13:24;;;;;;;16.90;5.30;;;;;;;21.18;46.91;98815.48;27143;1221;3052860;-67
2021/09/18 11:15:57;;;;;;;16.10;5.20;;;;;;;21.19;46.98;98812.77;27148;1221;3026035;-64
2021/09/18 11:18:27;;;;;;;15.30;6.00;;;;;;;21.18;47.08;98806.09;27175;1221;3026425;-68
2021/09/18 11:21:35;;;;;;;20.30;6.00;;;;;;;21.16;47.22;98805.08;27118;1221;3052978;-69
2021/09/18 11:24:20;;;;;;;21.80;6.70;;;;;;;21.16;47.13;98800.92;27162;1221;3052403;-70
2021/09/18 11:26:51;;;;;;;16.40;6.30;;;;;;;21.16;47.46;98798.81;27174;1219;3067927;-68
2021/09/18 11:29:21;;;;;;;21.10;6.90;;;;;;;21.22;47.60;98798.89;27180;1220;3025926;-71
2021/09/18 11:32:15;;;;;;;15.90;5.10;;;;;;;21.19;48.00;98792.44;27167;1221;3026446;-72
2021/09/18 11:34:52;;;;;;;19.30;4.60;;;;;;;21.24;47.17;98789.70;27190;1216;3071033;-72
2021/09/18 11:37:29;;;;;;;17.10;4.70;;;;;;;21.25;47.54;98789.75;27225;1215;3050954;-67
2021/09/18 11:40:03;;;;;;;13.00;4.50;;;;;;;21.37;47.47;98787.73;27228;1216;3026229;-66